createdAt,value
2018-08-27T00:00:02.315Z,12.38
2018-08-27T00:01:02.332Z,12.29
2018-08-27T00:01:47.436Z,12.21
2018-08-27T00:02:47.457Z,12.17
2018-08-27T00:03:47.734Z,12.17
2018-08-27T00:04:47.757Z,12.2
2018-08-27T00:06:02.438Z,12.23
2018-08-27T00:06:47.798Z,12.27
2018-08-27T00:07:47.818Z,12.27
2018-08-27T00:08:47.842Z,12.29
2018-08-27T00:09:47.865Z,12.38
2018-08-27T00:10:47.884Z,12.38
2018-08-27T00:12:47.929Z,12.34
2018-08-27T00:13:47.945Z,12.41
2018-08-27T00:14:47.712Z,12.31
2018-08-27T00:15:47.987Z,12.34
2018-08-27T00:16:47.750Z,12.37
2018-08-27T00:17:48.035Z,12.35
2018-08-27T00:18:48.059Z,12.35
2018-08-27T00:19:48.072Z,12.37
2018-08-27T00:20:48.093Z,12.38
2018-08-27T00:21:48.114Z,12.35
2018-08-27T00:22:48.138Z,12.42
2018-08-27T00:23:48.164Z,12.42
2018-08-27T00:24:48.177Z,12.5
2018-08-27T00:25:48.213Z,12.53
2018-08-27T00:27:47.991Z,12.59
2018-08-27T00:28:48.263Z,12.57
2018-08-27T00:29:48.300Z,12.52
2018-08-27T00:30:48.314Z,12.54
2018-08-27T00:32:02.728Z,12.5
2018-08-27T00:32:48.347Z,12.56
2018-08-27T00:33:48.371Z,12.52
2018-08-27T00:34:48.387Z,12.67
2018-08-27T00:35:48.409Z,12.7
2018-08-27T00:36:48.430Z,12.65
2018-08-27T00:38:03.112Z,12.65
2018-08-27T00:38:48.214Z,12.7
2018-08-27T00:39:48.505Z,12.71
2018-08-27T00:40:48.511Z,12.78
2018-08-27T00:41:48.279Z,12.74
2018-08-27T00:42:48.564Z,12.75
2018-08-27T00:43:48.321Z,12.77
2018-08-27T00:44:48.340Z,12.78
2018-08-27T00:45:48.361Z,12.85
2018-08-27T00:46:48.382Z,12.82
2018-08-27T00:47:48.505Z,12.83
2018-08-27T00:48:48.685Z,12.83
2018-08-27T00:49:48.711Z,12.79
2018-08-27T00:50:48.475Z,12.85
2018-08-27T00:51:48.745Z,12.75
2018-08-27T00:52:48.776Z,12.79
2018-08-27T00:54:03.449Z,12.65
2018-08-27T00:54:48.295Z,12.72
2018-08-27T00:55:48.315Z,12.7
2018-08-27T00:56:48.594Z,12.68
2018-08-27T00:57:48.615Z,12.56
2018-08-27T00:58:48.893Z,12.56
2018-08-27T00:59:48.916Z,12.5
2018-08-27T01:00:48.937Z,12.5
2018-08-27T01:01:49.010Z,12.62
2018-08-27T01:02:48.721Z,12.64
2018-08-27T01:04:49.023Z,12.56
2018-08-27T01:05:49.044Z,12.5
2018-08-27T01:06:49.069Z,12.46
2018-08-27T01:07:48.825Z,12.47
2018-08-27T01:08:49.108Z,12.52
2018-08-27T01:10:48.888Z,12.39
2018-08-27T01:11:48.652Z,12.42
2018-08-27T01:12:49.187Z,12.39
2018-08-27T01:13:49.211Z,12.45
2018-08-27T01:14:49.335Z,12.45
2018-08-27T01:15:49.253Z,12.49
2018-08-27T01:16:49.014Z,12.45
2018-08-27T01:17:49.037Z,12.45
2018-08-27T01:19:03.973Z,12.35
2018-08-27T01:19:49.077Z,12.34
2018-08-27T01:20:49.356Z,12.37
2018-08-27T01:21:49.380Z,12.37
2018-08-27T01:22:48.883Z,12.29
2018-08-27T01:23:49.425Z,12.19
2018-08-27T01:24:49.448Z,12.16
2018-08-27T01:26:03.864Z,12.04
2018-08-27T01:26:49.228Z,12.04
2018-08-27T01:27:49.605Z,12.02
2018-08-27T01:28:49.533Z,12.07
2018-08-27T01:30:49.564Z,11.96
2018-08-27T01:31:49.336Z,11.9
2018-08-27T01:32:49.350Z,11.9
2018-08-27T01:33:49.638Z,11.94
2018-08-27T01:35:04.311Z,11.82
2018-08-27T01:35:49.420Z,11.8
2018-08-27T01:37:04.349Z,11.73
2018-08-27T01:37:49.455Z,11.78
2018-08-27T01:38:49.732Z,11.72
2018-08-27T01:39:49.759Z,11.7
2018-08-27T01:41:04.437Z,11.69
2018-08-27T01:41:49.541Z,11.65
2018-08-27T01:42:49.559Z,11.69
2018-08-27T01:43:49.836Z,11.62
2018-08-27T01:44:49.602Z,11.58
2018-08-27T01:46:04.543Z,11.44
2018-08-27T01:46:49.902Z,11.49
2018-08-27T01:47:49.663Z,11.4
2018-08-27T01:48:49.684Z,11.44
2018-08-27T01:49:49.971Z,11.47
2018-08-27T01:50:49.727Z,11.43
2018-08-27T01:52:50.024Z,11.42
2018-08-27T01:53:50.046Z,11.43
2018-08-27T01:54:50.070Z,11.43
2018-08-27T01:55:49.834Z,11.39
2018-08-27T01:56:49.851Z,11.43
2018-08-27T01:57:50.132Z,11.51
2018-08-27T01:58:49.890Z,11.44
2018-08-27T01:59:49.910Z,11.42
2018-08-27T02:00:50.190Z,11.47
2018-08-27T02:01:50.060Z,11.42
2018-08-27T02:02:50.237Z,11.46
2018-08-27T02:03:49.736Z,11.47
2018-08-27T02:04:50.274Z,11.51
2018-08-27T02:05:50.296Z,11.61
2018-08-27T02:06:50.372Z,11.54
2018-08-27T02:07:50.079Z,11.49
2018-08-27T02:08:50.105Z,11.44
2018-08-27T02:09:50.120Z,11.42
2018-08-27T02:10:50.142Z,11.55
2018-08-27T02:11:50.421Z,11.46
2018-08-27T02:13:04.841Z,11.39
2018-08-27T02:14:50.479Z,11.35
2018-08-27T02:15:50.510Z,11.44
2018-08-27T02:17:05.188Z,11.37
2018-08-27T02:17:50.548Z,11.39
2018-08-27T02:18:50.571Z,11.43
2018-08-27T02:19:50.598Z,11.4
2018-08-27T02:20:50.652Z,11.35
2018-08-27T02:22:50.648Z,11.4
2018-08-27T02:23:50.670Z,11.29
2018-08-27T02:24:50.426Z,11.19
2018-08-27T02:25:50.912Z,11.27
2018-08-27T02:26:50.213Z,11.28
2018-08-27T02:27:50.749Z,11.24
2018-08-27T02:29:50.537Z,11.09
2018-08-27T02:30:50.294Z,11.09
2018-08-27T02:31:50.836Z,11.04
2018-08-27T02:32:50.855Z,11.03
2018-08-27T02:33:50.880Z,11.02
2018-08-27T02:34:51.008Z,10.94
2018-08-27T02:35:50.660Z,11.07
2018-08-27T02:36:50.939Z,11.14
2018-08-27T02:37:50.960Z,11.14
2018-08-27T02:38:50.975Z,11.1
2018-08-27T02:39:50.737Z,11.14
2018-08-27T02:40:51.020Z,11.21
2018-08-27T02:41:51.046Z,11.17
2018-08-27T02:42:50.803Z,11.21
2018-08-27T02:43:50.821Z,11.25
2018-08-27T02:45:05.764Z,11.29
2018-08-27T02:46:50.893Z,11.24
2018-08-27T02:47:51.171Z,11.28
2018-08-27T02:48:51.177Z,11.32
2018-08-27T02:49:51.199Z,11.29
2018-08-27T02:50:50.978Z,11.33
2018-08-27T02:51:50.724Z,11.35
2018-08-27T02:52:51.263Z,11.44
2018-08-27T02:53:51.287Z,11.43
2018-08-27T02:54:51.045Z,11.35
2018-08-27T02:55:50.810Z,11.43
2018-08-27T02:56:51.088Z,11.44
2018-08-27T02:57:51.112Z,11.47
2018-08-27T02:58:51.135Z,11.54
2018-08-27T02:59:51.410Z,11.44
2018-08-27T03:01:06.085Z,11.57
2018-08-27T03:02:51.211Z,11.65
2018-08-27T03:03:51.239Z,11.54
2018-08-27T03:04:51.511Z,11.6
2018-08-27T03:05:51.271Z,11.58
2018-08-27T03:06:51.293Z,11.64
2018-08-27T03:07:51.312Z,11.73
2018-08-27T03:08:51.336Z,11.76
2018-08-27T03:09:51.608Z,11.67
2018-08-27T03:10:51.630Z,11.72
2018-08-27T03:11:51.647Z,11.75
2018-08-27T03:12:51.676Z,11.78
2018-08-27T03:13:51.692Z,11.73
2018-08-27T03:14:51.196Z,11.72
2018-08-27T03:16:06.395Z,11.78
2018-08-27T03:16:51.237Z,11.79
2018-08-27T03:17:51.780Z,11.83
2018-08-27T03:18:51.800Z,11.75
2018-08-27T03:19:51.818Z,11.72
2018-08-27T03:20:51.836Z,11.86
2018-08-27T03:21:51.597Z,11.86
2018-08-27T03:22:51.875Z,11.88
2018-08-27T03:23:51.899Z,11.9
2018-08-27T03:24:51.735Z,11.96
2018-08-27T03:25:51.938Z,11.95
2018-08-27T03:26:51.444Z,11.98
2018-08-27T03:27:51.988Z,11.94
2018-08-27T03:28:52.013Z,11.9
2018-08-27T03:29:51.765Z,11.95
2018-08-27T03:31:51.803Z,11.88
2018-08-27T03:32:52.079Z,11.79
2018-08-27T03:33:52.104Z,11.85
2018-08-27T03:34:52.124Z,11.73
2018-08-27T03:35:52.154Z,11.7
2018-08-27T03:36:51.907Z,11.62
2018-08-27T03:37:52.181Z,11.65
2018-08-27T03:38:51.950Z,11.64
2018-08-27T03:39:51.966Z,11.65
2018-08-27T03:40:52.155Z,11.57
2018-08-27T03:41:52.267Z,11.52
2018-08-27T03:42:52.032Z,11.44
2018-08-27T03:43:52.308Z,11.4
2018-08-27T03:44:52.067Z,11.42
2018-08-27T03:45:52.371Z,11.42
2018-08-27T03:46:52.367Z,11.37
2018-08-27T03:49:07.076Z,11.19
2018-08-27T03:49:52.174Z,11.18
2018-08-27T03:50:51.933Z,11.11
2018-08-27T03:51:52.472Z,11.11
2018-08-27T03:52:51.974Z,11.11
2018-08-27T03:53:52.512Z,11.07
2018-08-27T03:54:52.529Z,11.14
2018-08-27T03:56:07.212Z,11.15
2018-08-27T03:57:07.231Z,11.11
2018-08-27T03:58:07.251Z,11.17
2018-08-27T03:58:52.614Z,11.07
2018-08-27T03:59:52.645Z,11.11
2018-08-27T04:01:07.390Z,11.1
2018-08-27T04:01:52.420Z,11.1
2018-08-27T04:02:52.712Z,11.15
2018-08-27T04:04:07.491Z,11.07
2018-08-27T04:04:52.733Z,11.11
2018-08-27T04:05:52.759Z,11.11
2018-08-27T04:06:52.782Z,11.15
2018-08-27T04:08:07.460Z,11.17
2018-08-27T04:08:52.821Z,11.24
2018-08-27T04:09:52.584Z,11.19
2018-08-27T04:10:52.854Z,11.27
2018-08-27T04:11:52.974Z,11.35
2018-08-27T04:12:52.903Z,11.29
2018-08-27T04:13:52.915Z,11.39
2018-08-27T04:14:52.422Z,11.44
2018-08-27T04:15:52.960Z,11.39
2018-08-27T04:16:52.465Z,11.43
2018-08-27T04:17:53.005Z,11.4
2018-08-27T04:18:53.024Z,11.4
2018-08-27T04:20:07.441Z,11.43
2018-08-27T04:20:52.806Z,11.49
2018-08-27T04:21:53.088Z,11.49
2018-08-27T04:23:53.123Z,11.55
2018-08-27T04:24:53.147Z,11.55
2018-08-27T04:25:52.903Z,11.64
2018-08-27T04:26:52.925Z,11.78
2018-08-27T04:27:53.201Z,11.73
2018-08-27T04:28:53.276Z,11.82
2018-08-27T04:29:53.243Z,11.76
2018-08-27T04:30:53.274Z,11.78
2018-08-27T04:31:53.033Z,11.91
2018-08-27T04:32:53.311Z,11.98
2018-08-27T04:33:53.068Z,11.96
2018-08-27T04:34:53.618Z,11.98
2018-08-27T04:36:08.028Z,11.98
2018-08-27T04:36:53.128Z,12.05
2018-08-27T04:37:53.410Z,12.17
2018-08-27T04:38:53.427Z,12.17
2018-08-27T04:39:53.446Z,12.21
2018-08-27T04:40:53.477Z,12.27
2018-08-27T04:41:53.237Z,12.31
2018-08-27T04:43:08.171Z,12.46
2018-08-27T04:43:53.273Z,12.49
2018-08-27T04:44:53.562Z,12.47
2018-08-27T04:45:53.575Z,12.64
2018-08-27T04:46:53.660Z,12.97
2018-08-27T04:47:53.625Z,13.36
2018-08-27T04:48:53.394Z,13.33
2018-08-27T04:49:53.656Z,13.29
2018-08-27T04:51:08.341Z,13.3
2018-08-27T04:51:53.443Z,13.39
2018-08-27T04:52:53.465Z,13.29
2018-08-27T04:53:53.482Z,13.22
2018-08-27T04:54:53.247Z,13.29
2018-08-27T04:56:08.445Z,13.54
2018-08-27T04:56:53.813Z,13.63
2018-08-27T04:57:53.573Z,13.82
2018-08-27T04:58:53.850Z,13.91
2018-08-27T04:59:53.866Z,14.02
2018-08-27T05:00:53.888Z,14.14
2018-08-27T05:02:08.311Z,14.22
2018-08-27T05:02:53.947Z,14.24
2018-08-27T05:03:53.964Z,14.27
2018-08-27T05:04:53.977Z,14.28
2018-08-27T05:05:53.995Z,14.28
2018-08-27T05:06:53.502Z,14.28
2018-08-27T05:07:54.039Z,14.43
2018-08-27T05:08:54.066Z,14.55
2018-08-27T05:09:54.083Z,15.27
2018-08-27T05:10:54.109Z,15.83
2018-08-27T05:11:53.868Z,16.05
2018-08-27T05:12:54.149Z,15.78
2018-08-27T05:13:54.232Z,15.62
2018-08-27T05:14:54.200Z,15.28
2018-08-27T05:15:54.222Z,15.25
2018-08-27T05:16:53.984Z,14.96
2018-08-27T05:17:54.006Z,14.99
2018-08-27T05:18:54.285Z,14.89
2018-08-27T05:19:54.315Z,14.8
2018-08-27T05:20:53.815Z,14.73
2018-08-27T05:21:54.094Z,14.64
2018-08-27T05:23:09.035Z,14.64
2018-08-27T05:23:54.139Z,14.64
2018-08-27T05:24:54.420Z,14.69
2018-08-27T05:25:54.184Z,14.73
2018-08-27T05:26:54.205Z,14.69
2018-08-27T05:28:54.247Z,14.62
2018-08-27T05:29:54.013Z,14.61
2018-08-27T05:30:54.671Z,14.55
2018-08-27T05:31:54.593Z,14.57
2018-08-27T05:32:54.618Z,14.64
2018-08-27T05:33:54.615Z,14.54
2018-08-27T05:34:54.642Z,14.64
2018-08-27T05:35:54.662Z,14.6
2018-08-27T05:36:54.427Z,14.68
2018-08-27T05:39:09.393Z,14.58
2018-08-27T05:39:54.492Z,14.52
2018-08-27T05:40:54.793Z,14.68
2018-08-27T05:41:54.532Z,14.51
2018-08-27T05:42:54.817Z,14.62
2018-08-27T05:43:54.838Z,14.68
2018-08-27T05:44:54.600Z,14.73
2018-08-27T05:46:09.542Z,14.77
2018-08-27T05:47:09.562Z,14.84
2018-08-27T05:47:55.242Z,14.84
2018-08-27T05:48:54.945Z,14.92
2018-08-27T05:49:54.714Z,15.1
2018-08-27T05:50:54.990Z,15.17
2018-08-27T05:51:54.755Z,15.25
2018-08-27T05:52:55.046Z,15.21
2018-08-27T05:53:55.071Z,15.23
2018-08-27T05:55:09.740Z,15.2
2018-08-27T05:55:54.843Z,15.21
2018-08-27T05:56:55.127Z,15.23
2018-08-27T05:57:55.144Z,15.23
2018-08-27T05:58:55.169Z,15.21
2018-08-27T05:59:55.199Z,15.49
2018-08-27T06:00:55.218Z,15.76
2018-08-27T06:01:55.504Z,16.34
2018-08-27T06:02:55.004Z,17.04
2018-08-27T06:03:55.289Z,17.79
2018-08-27T06:04:55.051Z,18.37
2018-08-27T06:05:55.074Z,18.82
2018-08-27T06:06:55.426Z,19.41
2018-08-27T06:07:55.117Z,20.03
2018-08-27T06:08:55.409Z,20.59
2018-08-27T06:09:55.183Z,21.16
2018-08-27T06:11:09.901Z,21.06
2018-08-27T06:15:55.583Z,20.21
2018-08-27T06:16:55.619Z,20.21
2018-08-27T06:17:55.637Z,20.52
2018-08-27T06:18:55.680Z,20.66
2018-08-27T06:19:55.431Z,21.21
2018-08-27T06:20:55.455Z,21.49
2018-08-27T06:21:56.076Z,21.82
2018-08-27T06:23:55.902Z,21.69
2018-08-27T06:24:55.617Z,21.21
2018-08-27T06:26:10.505Z,20.89
2018-08-27T06:26:55.877Z,20.52
2018-08-27T06:28:55.969Z,20.14
2018-08-27T06:29:55.692Z,20.06
2018-08-27T06:30:55.464Z,19.92
2018-08-27T06:31:55.999Z,19.73
2018-08-27T06:32:56.030Z,19.59
2018-08-27T06:33:55.811Z,19.62
2018-08-27T06:34:56.081Z,19.56
2018-08-27T06:36:10.509Z,19.58
2018-08-27T06:36:56.129Z,19.56
2018-08-27T06:37:56.366Z,19.48
2018-08-27T06:38:56.194Z,19.55
2018-08-27T06:39:55.691Z,19.55
2018-08-27T06:40:56.233Z,20.01
2018-08-27T06:41:55.743Z,20.58
2018-08-27T06:42:56.288Z,21.09
2018-08-27T06:43:56.310Z,21.24
2018-08-27T06:44:56.079Z,21.19
2018-08-27T06:45:56.202Z,21.24
2018-08-27T06:46:56.132Z,21.12
2018-08-27T06:47:56.165Z,21.06
2018-08-27T06:48:56.184Z,21.12
2018-08-27T06:49:56.208Z,21.5
2018-08-27T06:50:56.237Z,21.65
2018-08-27T06:52:10.920Z,21.62
2018-08-27T06:52:56.543Z,21.4
2018-08-27T06:53:56.053Z,21.4
2018-08-27T06:54:56.600Z,21.35
2018-08-27T06:55:56.624Z,21.27
2018-08-27T06:56:56.388Z,21.14
2018-08-27T06:58:11.339Z,21.04
2018-08-27T07:00:56.639Z,20.57
2018-08-27T07:02:56.799Z,20.26
2018-08-27T07:03:56.568Z,20.33
2018-08-27T07:04:56.856Z,20.42
2018-08-27T07:06:11.537Z,20.52
2018-08-27T07:06:56.646Z,20.62
2018-08-27T07:07:56.665Z,20.85
2018-08-27T07:08:56.693Z,21.09
2018-08-27T07:10:57.009Z,21.07
2018-08-27T07:11:57.013Z,21.09
2018-08-27T07:14:56.846Z,21.28
2018-08-27T07:15:57.128Z,21.22
2018-08-27T07:16:57.155Z,21.25
2018-08-27T07:17:57.179Z,21.29
2018-08-27T07:18:56.945Z,21.22
2018-08-27T07:19:56.973Z,21.14
2018-08-27T07:20:56.996Z,21.1
2018-08-27T07:21:57.288Z,21.01
2018-08-27T07:22:57.303Z,21.1
2018-08-27T07:23:57.333Z,20.85
2018-08-27T07:24:57.353Z,21.06
2018-08-27T07:25:57.378Z,21.22
2018-08-27T07:26:57.148Z,21.06
2018-08-27T07:27:57.177Z,21.19
2018-08-27T07:28:57.464Z,21.25
2018-08-27T07:30:12.146Z,21.4
2018-08-27T07:31:57.278Z,21.56
2018-08-27T07:32:57.310Z,21.59
2018-08-27T07:33:57.325Z,21.61
2018-08-27T07:34:57.607Z,21.71
2018-08-27T07:35:57.375Z,21.74
2018-08-27T07:36:57.656Z,21.88
2018-08-27T07:37:57.165Z,21.88
2018-08-27T07:38:57.704Z,21.65
2018-08-27T07:39:57.475Z,21.52
2018-08-27T07:40:57.784Z,21.61
2018-08-27T07:41:57.535Z,21.4
2018-08-27T07:42:57.547Z,21.31
2018-08-27T07:43:57.838Z,21.43
2018-08-27T07:44:57.869Z,21.38
2018-08-27T07:46:57.908Z,21.4
2018-08-27T07:48:57.700Z,21.42
2018-08-27T07:49:57.984Z,21.34
2018-08-27T07:50:58.004Z,21.32
2018-08-27T07:51:58.038Z,21.4
2018-08-27T07:52:57.799Z,21.42
2018-08-27T07:54:12.743Z,21.59
2018-08-27T07:54:58.110Z,21.79
2018-08-27T07:56:12.798Z,22.07
2018-08-27T07:56:59.161Z,22.43
2018-08-27T07:57:57.935Z,22.91
2018-08-27T07:58:58.210Z,23.32
2018-08-27T07:59:58.243Z,23.63
2018-08-27T08:01:12.920Z,23.66
2018-08-27T08:01:58.286Z,23.8
2018-08-27T08:02:58.315Z,23.78
2018-08-27T08:03:58.339Z,23.6
2018-08-27T08:04:58.368Z,23.72
2018-08-27T08:05:58.403Z,23.75
2018-08-27T08:06:58.160Z,24
2018-08-27T08:07:58.442Z,24
2018-08-27T08:10:58.519Z,24.02
2018-08-27T08:11:58.548Z,23.9
2018-08-27T08:12:58.573Z,23.57
2018-08-27T08:13:58.340Z,23.53
2018-08-27T08:14:58.112Z,23.66
2018-08-27T08:15:58.652Z,24.13
2018-08-27T08:16:58.686Z,24.53
2018-08-27T08:17:58.707Z,24.58
2018-08-27T08:18:58.474Z,24.55
2018-08-27T08:19:58.522Z,24.46
2018-08-27T08:20:58.629Z,24.73
2018-08-27T08:21:58.814Z,25.06
2018-08-27T08:22:59.219Z,25.43
2018-08-27T08:23:58.881Z,25.69
2018-08-27T08:24:58.921Z,25.69
2018-08-27T08:25:58.947Z,25.9
2018-08-27T08:26:58.976Z,25.6
2018-08-27T08:27:59.006Z,25.45
2018-08-27T08:28:58.750Z,25.55
2018-08-27T08:29:58.834Z,25.47
2018-08-27T08:30:58.831Z,25.57
2018-08-27T08:31:58.835Z,25.73
2018-08-27T08:33:59.179Z,26.29
2018-08-27T08:34:58.937Z,26.07
2018-08-27T08:35:59.242Z,26.06
2018-08-27T08:36:59.334Z,25.9
2018-08-27T08:37:59.039Z,25.87
2018-08-27T08:38:59.326Z,25.9
2018-08-27T08:39:59.834Z,25.8
2018-08-27T08:41:14.010Z,25.97
2018-08-27T08:41:59.379Z,25.91
2018-08-27T08:42:59.405Z,26.2
2018-08-27T08:43:59.432Z,26.28
2018-08-27T08:44:59.490Z,26.4
2018-08-27T08:45:59.240Z,26.69
2018-08-27T08:46:59.527Z,26.76
2018-08-27T08:47:59.307Z,26.63
2018-08-27T08:49:14.247Z,26.94
2018-08-27T08:49:59.667Z,26.8
2018-08-27T08:50:59.408Z,26.92
2018-08-27T08:51:59.683Z,27.12
2018-08-27T08:52:59.707Z,26.92
2018-08-27T08:53:59.474Z,26.58
2018-08-27T08:54:59.524Z,26.32
2018-08-27T08:55:59.849Z,26.32
2018-08-27T08:56:59.887Z,26.02
2018-08-27T08:58:29.170Z,26.05
2018-08-27T08:59:14.359Z,26.35
2018-08-27T08:59:59.392Z,26.28
2018-08-27T09:00:59.661Z,26.26
2018-08-27T09:01:59.944Z,26.4
2018-08-27T09:02:59.985Z,26.3
2018-08-27T09:03:59.999Z,26.35
2018-08-27T09:05:14.694Z,26.2
2018-08-27T09:07:00.086Z,26.05
2018-08-27T09:08:00.321Z,26.02
2018-08-27T09:09:00.081Z,26.18
2018-08-27T09:10:00.175Z,26.4
2018-08-27T09:11:00.205Z,26.4
2018-08-27T09:11:59.979Z,26.47
2018-08-27T09:13:00.006Z,26.89
2018-08-27T09:14:00.393Z,27.31
2018-08-27T09:15:00.054Z,27.4
2018-08-27T09:16:00.348Z,27.46
2018-08-27T09:17:00.655Z,27.4
2018-08-27T09:18:00.146Z,27.55
2018-08-27T09:19:00.436Z,27.67
2018-08-27T09:20:00.197Z,27.84
2018-08-27T09:21:15.153Z,27.66
2018-08-27T09:22:00.511Z,27.62
2018-08-27T09:23:00.546Z,27.51
2018-08-27T09:24:00.671Z,27.41
2018-08-27T09:26:15.291Z,26.97
2018-08-27T09:27:00.396Z,26.84
2018-08-27T09:28:00.688Z,26.85
2018-08-27T09:30:00.482Z,26.55
2018-08-27T09:32:00.544Z,26.32
2018-08-27T09:34:00.593Z,26.33
2018-08-27T09:35:00.621Z,26.15
2018-08-27T09:36:15.578Z,26.17
2018-08-27T09:37:01.177Z,26.29
2018-08-27T09:39:00.992Z,25.91
2018-08-27T09:40:15.685Z,25.8
2018-08-27T09:41:01.054Z,25.82
2018-08-27T09:42:01.080Z,25.8
2018-08-27T09:43:15.764Z,25.85
2018-08-27T09:44:00.874Z,25.77
2018-08-27T09:45:15.818Z,25.33
2018-08-27T09:46:01.631Z,25.36
2018-08-27T09:47:01.552Z,25.38
2018-08-27T09:48:01.238Z,25.4
2018-08-27T09:50:01.309Z,25.43
2018-08-27T09:51:01.418Z,25.3
2018-08-27T09:52:01.345Z,25.38
2018-08-27T09:53:01.540Z,25.35
2018-08-27T09:54:01.142Z,25.39
2018-08-27T09:55:01.460Z,25.25
2018-08-27T09:56:01.463Z,25.23
2018-08-27T09:57:00.969Z,24.93
2018-08-27T09:58:01.510Z,25.06
2018-08-27T09:59:01.586Z,24.96
2018-08-27T10:00:01.046Z,25.09
2018-08-27T10:01:01.338Z,25.15
2018-08-27T10:02:16.279Z,25.2
2018-08-27T10:03:01.645Z,25.27
2018-08-27T10:04:01.416Z,25.39
2018-08-27T10:05:01.708Z,25.38
2018-08-27T10:06:01.720Z,25.32
2018-08-27T10:07:01.492Z,25.4
2018-08-27T10:08:16.444Z,25.21
2018-08-27T10:09:01.664Z,25.1
2018-08-27T10:10:01.844Z,25.09
2018-08-27T10:11:01.348Z,24.9
2018-08-27T10:12:01.891Z,24.88
2018-08-27T10:13:01.913Z,25.08
2018-08-27T10:14:01.678Z,25.35
2018-08-27T10:15:02.031Z,25.54
2018-08-27T10:16:01.474Z,25.72
2018-08-27T10:17:01.759Z,25.65
2018-08-27T10:18:01.797Z,25.73
2018-08-27T10:19:02.079Z,25.7
2018-08-27T10:22:02.210Z,25.76
2018-08-27T10:23:02.176Z,25.83
2018-08-27T10:24:16.866Z,25.99
2018-08-27T10:25:01.971Z,26.07
2018-08-27T10:26:01.997Z,26.29
2018-08-27T10:27:02.284Z,26.35
2018-08-27T10:28:02.053Z,26.09
2018-08-27T10:29:02.333Z,26.18
2018-08-27T10:30:02.805Z,26.2
2018-08-27T10:31:02.390Z,26.01
2018-08-27T10:32:02.161Z,25.64
2018-08-27T10:33:02.445Z,25.5
2018-08-27T10:34:02.475Z,25.23
2018-08-27T10:35:02.496Z,24.87
2018-08-27T10:36:02.533Z,24.77
2018-08-27T10:38:02.583Z,24.64
2018-08-27T10:39:02.093Z,24.55
2018-08-27T10:40:17.296Z,24.4
2018-08-27T10:41:02.656Z,24.4
2018-08-27T10:42:02.423Z,24.37
2018-08-27T10:43:02.747Z,24.47
2018-08-27T10:44:02.744Z,24.45
2018-08-27T10:45:02.764Z,24.58
2018-08-27T10:46:02.528Z,24.71
2018-08-27T10:47:17.479Z,24.98
2018-08-27T10:48:02.842Z,25.02
2018-08-27T10:49:02.610Z,25.02
2018-08-27T10:50:02.717Z,25.1
2018-08-27T10:51:17.324Z,25.27
2018-08-27T10:52:02.943Z,25.24
2018-08-27T10:53:02.718Z,25.36
2018-08-27T10:54:03.016Z,25.3
2018-08-27T10:55:02.768Z,25.28
2018-08-27T10:56:17.713Z,25.42
2018-08-27T10:57:02.825Z,25.57
2018-08-27T10:58:03.206Z,25.5
2018-08-27T10:59:03.139Z,25.28
2018-08-27T11:00:03.158Z,25.27
2018-08-27T11:01:17.850Z,25.28
2018-08-27T11:02:17.874Z,25.28
2018-08-27T11:03:03.246Z,25.27
2018-08-27T11:04:17.925Z,25.3
2018-08-27T11:05:03.370Z,25.23
2018-08-27T11:06:03.057Z,25.3
2018-08-27T11:07:03.085Z,25.35
2018-08-27T11:08:03.114Z,25.3
2018-08-27T11:09:02.882Z,25.3
2018-08-27T11:10:02.905Z,25.21
2018-08-27T11:11:17.852Z,25.25
2018-08-27T11:12:03.216Z,25.39
2018-08-27T11:13:03.508Z,25.2
2018-08-27T11:14:03.529Z,25.14
2018-08-27T11:16:03.725Z,24.9
2018-08-27T11:17:03.605Z,25.09
2018-08-27T11:18:03.640Z,24.83
2018-08-27T11:19:03.143Z,24.76
2018-08-27T11:20:04.236Z,24.78
2018-08-27T11:21:18.115Z,24.69
2018-08-27T11:22:03.484Z,24.58
2018-08-27T11:23:03.764Z,24.61
2018-08-27T11:24:03.800Z,24.53
2018-08-27T11:25:03.561Z,24.5
2018-08-27T11:26:03.865Z,24.6
2018-08-27T11:27:03.353Z,24.39
2018-08-27T11:28:03.636Z,24.34
2018-08-27T11:29:03.691Z,24.53
2018-08-27T11:30:18.670Z,24.52
2018-08-27T11:31:03.975Z,24.67
2018-08-27T11:32:04.000Z,24.67
2018-08-27T11:33:04.139Z,24.61
2018-08-27T11:34:03.794Z,24.73
2018-08-27T11:35:18.740Z,24.68
2018-08-27T11:36:03.850Z,24.6
2018-08-27T11:37:03.873Z,24.34
2018-08-27T11:38:03.903Z,24.24
2018-08-27T11:39:04.187Z,24.13
2018-08-27T11:40:04.218Z,24.18
2018-08-27T11:41:03.975Z,24.28
2018-08-27T11:42:03.745Z,24.3
2018-08-27T11:43:19.049Z,24.3
2018-08-27T11:45:04.356Z,24.32
2018-08-27T11:46:04.115Z,24.37
2018-08-27T11:48:03.900Z,24.13
2018-08-27T11:49:04.462Z,24.25
2018-08-27T11:50:04.303Z,24.27
2018-08-27T11:51:04.431Z,24.24
2018-08-27T11:52:04.003Z,24.22
2018-08-27T11:53:04.550Z,24.18
2018-08-27T11:54:04.313Z,24.31
2018-08-27T11:55:05.095Z,24.25
2018-08-27T11:56:04.368Z,24.43
2018-08-27T11:57:04.389Z,24.55
2018-08-27T11:58:04.424Z,24.57
2018-08-27T11:59:19.361Z,24.42
2018-08-27T12:00:04.778Z,24.55
2018-08-27T12:01:04.909Z,24.6
2018-08-27T12:02:04.873Z,24.76
2018-08-27T12:03:04.548Z,24.77
2018-08-27T12:04:19.494Z,24.77
2018-08-27T12:05:04.597Z,24.68
2018-08-27T12:06:04.628Z,24.9
2018-08-27T12:07:04.917Z,24.88
2018-08-27T12:08:04.930Z,24.93
2018-08-27T12:09:05.431Z,25.02
2018-08-27T12:10:04.991Z,25.27
2018-08-27T12:12:04.778Z,25.21
2018-08-27T12:13:05.062Z,25.23
2018-08-27T12:14:05.090Z,25.17
2018-08-27T12:15:19.774Z,25.08
2018-08-27T12:16:04.882Z,25.2
2018-08-27T12:17:04.961Z,25.08
2018-08-27T12:19:19.882Z,24.81
2018-08-27T12:20:04.991Z,24.87
2018-08-27T12:21:05.273Z,24.9
2018-08-27T12:22:05.038Z,24.85
2018-08-27T12:23:05.328Z,24.8
2018-08-27T12:24:05.351Z,24.61
2018-08-27T12:25:05.383Z,24.68
2018-08-27T12:26:19.805Z,24.8
2018-08-27T12:27:05.168Z,24.84
2018-08-27T12:28:05.453Z,24.68
2018-08-27T12:29:05.320Z,24.78
2018-08-27T12:30:05.349Z,24.95
2018-08-27T12:31:20.192Z,24.9
2018-08-27T12:32:05.557Z,24.91
2018-08-27T12:35:05.639Z,25.17
2018-08-27T12:36:05.667Z,25.23
2018-08-27T12:37:05.685Z,25.2
2018-08-27T12:38:05.724Z,25.15
2018-08-27T12:39:05.479Z,25.09
2018-08-27T12:40:05.523Z,25.08
2018-08-27T12:41:05.791Z,25.03
2018-08-27T12:42:05.568Z,25.14
2018-08-27T12:43:05.588Z,25.1
2018-08-27T12:44:05.874Z,25.06
2018-08-27T12:45:05.641Z,25.08
2018-08-27T12:46:20.324Z,25.23
2018-08-27T12:47:05.951Z,25.25
2018-08-27T12:48:05.975Z,25.23
2018-08-27T12:49:06.016Z,25.24
2018-08-27T12:50:06.023Z,25.33
2018-08-27T12:51:06.094Z,25.2
2018-08-27T12:52:05.818Z,25.2
2018-08-27T12:53:05.849Z,25.09
2018-08-27T12:54:06.135Z,25.09
2018-08-27T12:55:05.899Z,25.05
2018-08-27T12:56:06.181Z,25.17
2018-08-27T12:57:05.952Z,25.14
2018-08-27T12:58:06.241Z,25.25
2018-08-27T12:59:06.277Z,25.36
2018-08-27T13:00:06.029Z,25.42
2018-08-27T13:01:06.317Z,25.32
2018-08-27T13:03:06.108Z,25.38
2018-08-27T13:04:06.389Z,25.36
2018-08-27T13:05:06.420Z,25.27
2018-08-27T13:06:06.185Z,25.2
2018-08-27T13:07:06.225Z,25.3
2018-08-27T13:08:06.034Z,25.39
2018-08-27T13:09:06.010Z,25.43
2018-08-27T13:10:06.033Z,25.17
2018-08-27T13:11:06.322Z,25.25
2018-08-27T13:12:21.035Z,25.21
2018-08-27T13:13:06.495Z,25.09
2018-08-27T13:14:06.396Z,24.91
2018-08-27T13:15:06.685Z,24.93
2018-08-27T13:16:06.455Z,25.05
2018-08-27T13:19:07.053Z,25.08
2018-08-27T13:20:06.912Z,24.95
2018-08-27T13:22:06.865Z,24.5
2018-08-27T13:23:06.371Z,24.55
2018-08-27T13:24:06.916Z,24.62
2018-08-27T13:25:06.939Z,24.69
2018-08-27T13:26:06.916Z,24.73
2018-08-27T13:27:07.004Z,24.93
2018-08-27T13:28:07.083Z,24.87
2018-08-27T13:29:06.788Z,25.05
2018-08-27T13:30:07.307Z,25.06
2018-08-27T13:31:06.836Z,25.14
2018-08-27T13:32:07.126Z,25.18
2018-08-27T13:33:06.892Z,25.08
2018-08-27T13:34:21.874Z,25.14
2018-08-27T13:35:06.967Z,25.24
2018-08-27T13:36:07.223Z,25.33
2018-08-27T13:37:06.990Z,25.33
2018-08-27T13:38:07.277Z,25.35
2018-08-27T13:39:07.060Z,25.35
2018-08-27T13:41:06.839Z,25.4
2018-08-27T13:42:07.124Z,25.46
2018-08-27T13:43:22.069Z,25.47
2018-08-27T13:44:07.432Z,25.5
2018-08-27T13:45:07.205Z,25.6
2018-08-27T13:46:07.495Z,25.61
2018-08-27T13:47:07.254Z,25.6
2018-08-27T13:48:07.443Z,25.75
2018-08-27T13:49:07.570Z,25.46
2018-08-27T13:50:21.993Z,25.5
2018-08-27T13:51:07.626Z,25.46
2018-08-27T13:52:07.644Z,25.62